sensor_id;sensor_type;location;lat;lon;timestamp;P1;durP1;ratioP1;P2;durP2;ratioP2
25391;SDS011;13329;48.402;11.718;2023-04-03T00:01:43;6.90;;;2.23;;
25391;SDS011;13329;48.402;11.718;2023-04-03T00:04:08;6.40;;;1.70;;
25391;SDS011;13329;48.402;11.718;2023-04-03T00:06:33;3.83;;;2.10;;
25391;SDS011;13329;48.402;11.718;2023-04-03T00:08:59;3.55;;;2.03;;
25391;SDS011;13329;48.402;11.718;2023-04-03T00:11:25;3.25;;;2.08;;
25391;SDS011;13329;48.402;11.718;2023-04-03T00:13:50;5.65;;;1.50;;
25391;SDS011;13329;48.402;11.718;2023-04-03T00:16:15;3.45;;;1.80;;
25391;SDS011;13329;48.402;11.718;2023-04-03T00:18:41;3.88;;;2.00;;
25391;SDS011;13329;48.402;11.718;2023-04-03T00:21:06;2.47;;;1.80;;
25391;SDS011;13329;48.402;11.718;2023-04-03T00:23:32;2.60;;;1.67;;
25391;SDS011;13329;48.402;11.718;2023-04-03T00:25:57;3.60;;;2.03;;
25391;SDS011;13329;48.402;11.718;2023-04-03T00:28:22;3.53;;;1.90;;
25391;SDS011;13329;48.402;11.718;2023-04-03T00:30:50;2.78;;;1.73;;
25391;SDS011;13329;48.402;11.718;2023-04-03T00:33:15;4.10;;;1.98;;
25391;SDS011;13329;48.402;11.718;2023-04-03T00:35:41;4.03;;;1.63;;
25391;SDS011;13329;48.402;11.718;2023-04-03T00:38:06;4.90;;;2.13;;
25391;SDS011;13329;48.402;11.718;2023-04-03T00:40:41;2.83;;;1.58;;
25391;SDS011;13329;48.402;11.718;2023-04-03T00:45:45;2.35;;;1.73;;
25391;SDS011;13329;48.402;11.718;2023-04-03T00:48:13;2.58;;;1.80;;
25391;SDS011;13329;48.402;11.718;2023-04-03T00:50:40;2.35;;;1.50;;
25391;SDS011;13329;48.402;11.718;2023-04-03T00:53:07;3.30;;;1.45;;
25391;SDS011;13329;48.402;11.718;2023-04-03T00:55:33;5.43;;;1.63;;
25391;SDS011;13329;48.402;11.718;2023-04-03T00:58:00;3.33;;;1.70;;
25391;SDS011;13329;48.402;11.718;2023-04-03T01:00:26;2.15;;;1.48;;
25391;SDS011;13329;48.402;11.718;2023-04-03T01:02:51;5.55;;;1.67;;
25391;SDS011;13329;48.402;11.718;2023-04-03T01:05:17;2.60;;;1.40;;
25391;SDS011;13329;48.402;11.718;2023-04-03T01:07:42;1.30;;;1.20;;
25391;SDS011;13329;48.402;11.718;2023-04-03T01:10:09;2.53;;;1.58;;
25391;SDS011;13329;48.402;11.718;2023-04-03T01:12:39;2.65;;;1.35;;
25391;SDS011;13329;48.402;11.718;2023-04-03T01:17:37;3.97;;;1.60;;
25391;SDS011;13329;48.402;11.718;2023-04-03T01:25:21;2.55;;;1.50;;
25391;SDS011;13329;48.402;11.718;2023-04-03T01:27:46;2.47;;;1.90;;
25391;SDS011;13329;48.402;11.718;2023-04-03T01:30:11;8.30;;;2.27;;
25391;SDS011;13329;48.402;11.718;2023-04-03T01:32:37;2.60;;;1.27;;
25391;SDS011;13329;48.402;11.718;2023-04-03T01:35:03;2.67;;;1.67;;
25391;SDS011;13329;48.402;11.718;2023-04-03T01:37:28;3.33;;;1.50;;
25391;SDS011;13329;48.402;11.718;2023-04-03T01:39:53;3.80;;;1.60;;
25391;SDS011;13329;48.402;11.718;2023-04-03T01:42:18;4.47;;;1.67;;
25391;SDS011;13329;48.402;11.718;2023-04-03T01:44:43;2.30;;;1.37;;
25391;SDS011;13329;48.402;11.718;2023-04-03T01:47:10;2.17;;;1.40;;
25391;SDS011;13329;48.402;11.718;2023-04-03T01:49:35;3.30;;;2.13;;
25391;SDS011;13329;48.402;11.718;2023-04-03T01:52:00;4.53;;;1.80;;
25391;SDS011;13329;48.402;11.718;2023-04-03T01:54:25;4.20;;;1.80;;
25391;SDS011;13329;48.402;11.718;2023-04-03T01:56:51;2.70;;;1.60;;
25391;SDS011;13329;48.402;11.718;2023-04-03T01:59:16;2.35;;;1.50;;
25391;SDS011;13329;48.402;11.718;2023-04-03T02:01:42;3.13;;;1.70;;
25391;SDS011;13329;48.402;11.718;2023-04-03T02:04:10;2.78;;;1.77;;
25391;SDS011;13329;48.402;11.718;2023-04-03T02:06:35;2.22;;;1.65;;
25391;SDS011;13329;48.402;11.718;2023-04-03T02:09:00;2.25;;;1.50;;
25391;SDS011;13329;48.402;11.718;2023-04-03T02:11:25;5.27;;;2.07;;
25391;SDS011;13329;48.402;11.718;2023-04-03T02:13:51;2.15;;;1.50;;
25391;SDS011;13329;48.402;11.718;2023-04-03T02:16:16;4.70;;;1.80;;
25391;SDS011;13329;48.402;11.718;2023-04-03T02:18:41;2.90;;;1.70;;
25391;SDS011;13329;48.402;11.718;2023-04-03T02:21:06;2.53;;;1.75;;
25391;SDS011;13329;48.402;11.718;2023-04-03T02:23:32;2.23;;;1.40;;
25391;SDS011;13329;48.402;11.718;2023-04-03T02:26:07;3.27;;;1.53;;
25391;SDS011;13329;48.402;11.718;2023-04-03T02:28:33;2.13;;;1.33;;
25391;SDS011;13329;48.402;11.718;2023-04-03T02:30:58;2.50;;;1.52;;
25391;SDS011;13329;48.402;11.718;2023-04-03T02:33:23;2.30;;;1.63;;
25391;SDS011;13329;48.402;11.718;2023-04-03T02:35:52;3.73;;;1.77;;
25391;SDS011;13329;48.402;11.718;2023-04-03T02:38:18;2.25;;;1.50;;
25391;SDS011;13329;48.402;11.718;2023-04-03T02:40:43;2.80;;;1.57;;
25391;SDS011;13329;48.402;11.718;2023-04-03T02:43:08;2.67;;;1.60;;
25391;SDS011;13329;48.402;11.718;2023-04-03T02:45:33;3.07;;;1.57;;
25391;SDS011;13329;48.402;11.718;2023-04-03T02:47:59;3.67;;;2.10;;
25391;SDS011;13329;48.402;11.718;2023-04-03T02:50:24;3.73;;;1.60;;
25391;SDS011;13329;48.402;11.718;2023-04-03T02:52:49;3.38;;;1.63;;
25391;SDS011;13329;48.402;11.718;2023-04-03T02:55:14;4.17;;;1.93;;
25391;SDS011;13329;48.402;11.718;2023-04-03T02:57:40;2.72;;;1.42;;
25391;SDS011;13329;48.402;11.718;2023-04-03T03:00:06;2.47;;;1.70;;
25391;SDS011;13329;48.402;11.718;2023-04-03T03:02:31;3.72;;;1.88;;
25391;SDS011;13329;48.402;11.718;2023-04-03T03:04:56;3.27;;;1.90;;
25391;SDS011;13329;48.402;11.718;2023-04-03T03:07:21;3.65;;;2.13;;
25391;SDS011;13329;48.402;11.718;2023-04-03T03:09:47;3.10;;;1.77;;
25391;SDS011;13329;48.402;11.718;2023-04-03T03:12:12;4.83;;;1.87;;
25391;SDS011;13329;48.402;11.718;2023-04-03T03:14:37;3.80;;;2.17;;
25391;SDS011;13329;48.402;11.718;2023-04-03T03:17:02;3.88;;;2.00;;
25391;SDS011;13329;48.402;11.718;2023-04-03T03:19:27;4.30;;;2.03;;
25391;SDS011;13329;48.402;11.718;2023-04-03T03:21:53;3.10;;;2.00;;
25391;SDS011;13329;48.402;11.718;2023-04-03T03:24:18;2.57;;;1.50;;
25391;SDS011;13329;48.402;11.718;2023-04-03T03:26:43;2.97;;;1.60;;
25391;SDS011;13329;48.402;11.718;2023-04-03T03:29:08;3.53;;;1.90;;
25391;SDS011;13329;48.402;11.718;2023-04-03T03:31:33;4.20;;;2.15;;
25391;SDS011;13329;48.402;11.718;2023-04-03T03:33:59;3.90;;;2.00;;
25391;SDS011;13329;48.402;11.718;2023-04-03T03:36:24;3.57;;;1.97;;
25391;SDS011;13329;48.402;11.718;2023-04-03T03:38:49;4.90;;;2.20;;
25391;SDS011;13329;48.402;11.718;2023-04-03T03:41:14;3.83;;;2.00;;
25391;SDS011;13329;48.402;11.718;2023-04-03T03:43:39;2.65;;;1.83;;
25391;SDS011;13329;48.402;11.718;2023-04-03T03:46:05;4.18;;;2.17;;
25391;SDS011;13329;48.402;11.718;2023-04-03T03:48:30;4.67;;;1.83;;
25391;SDS011;13329;48.402;11.718;2023-04-03T03:50:55;2.17;;;1.70;;
25391;SDS011;13329;48.402;11.718;2023-04-03T03:53:20;1.93;;;1.70;;
25391;SDS011;13329;48.402;11.718;2023-04-03T03:55:45;4.27;;;1.97;;
25391;SDS011;13329;48.402;11.718;2023-04-03T03:58:11;2.30;;;1.70;;
25391;SDS011;13329;48.402;11.718;2023-04-03T04:00:36;3.90;;;1.80;;
25391;SDS011;13329;48.402;11.718;2023-04-03T04:03:01;4.77;;;1.90;;
25391;SDS011;13329;48.402;11.718;2023-04-03T04:05:26;2.70;;;1.90;;
25391;SDS011;13329;48.402;11.718;2023-04-03T04:07:51;2.47;;;1.77;;
25391;SDS011;13329;48.402;11.718;2023-04-03T04:10:17;3.47;;;1.57;;
25391;SDS011;13329;48.402;11.718;2023-04-03T04:12:42;3.03;;;2.00;;
25391;SDS011;13329;48.402;11.718;2023-04-03T04:15:07;3.00;;;1.90;;
25391;SDS011;13329;48.402;11.718;2023-04-03T04:17:33;2.63;;;1.75;;
25391;SDS011;13329;48.402;11.718;2023-04-03T04:20:00;4.35;;;2.03;;
25391;SDS011;13329;48.402;11.718;2023-04-03T04:22:25;3.67;;;2.20;;
25391;SDS011;13329;48.402;11.718;2023-04-03T04:24:50;3.57;;;2.03;;
25391;SDS011;13329;48.402;11.718;2023-04-03T04:27:15;3.95;;;2.08;;
25391;SDS011;13329;48.402;11.718;2023-04-03T04:29:41;4.22;;;2.15;;
25391;SDS011;13329;48.402;11.718;2023-04-03T04:32:06;4.00;;;1.95;;
25391;SDS011;13329;48.402;11.718;2023-04-03T04:34:31;4.47;;;2.20;;
25391;SDS011;13329;48.402;11.718;2023-04-03T04:36:57;5.80;;;2.03;;
25391;SDS011;13329;48.402;11.718;2023-04-03T04:39:22;4.80;;;1.80;;
25391;SDS011;13329;48.402;11.718;2023-04-03T04:41:47;2.60;;;1.73;;
25391;SDS011;13329;48.402;11.718;2023-04-03T04:44:12;2.90;;;1.90;;
25391;SDS011;13329;48.402;11.718;2023-04-03T04:46:37;5.23;;;2.30;;
25391;SDS011;13329;48.402;11.718;2023-04-03T04:49:03;3.78;;;2.30;;
25391;SDS011;13329;48.402;11.718;2023-04-03T04:51:28;3.63;;;1.90;;
25391;SDS011;13329;48.402;11.718;2023-04-03T04:53:53;2.53;;;1.90;;
25391;SDS011;13329;48.402;11.718;2023-04-03T04:56:18;4.90;;;2.00;;
25391;SDS011;13329;48.402;11.718;2023-04-03T04:58:43;2.47;;;1.80;;
25391;SDS011;13329;48.402;11.718;2023-04-03T05:01:09;2.70;;;1.60;;
25391;SDS011;13329;48.402;11.718;2023-04-03T05:03:35;3.35;;;2.00;;
25391;SDS011;13329;48.402;11.718;2023-04-03T05:06:00;3.45;;;2.08;;
25391;SDS011;13329;48.402;11.718;2023-04-03T05:08:26;4.13;;;2.50;;
25391;SDS011;13329;48.402;11.718;2023-04-03T05:10:51;3.03;;;1.77;;
25391;SDS011;13329;48.402;11.718;2023-04-03T05:13:18;4.53;;;2.00;;
25391;SDS011;13329;48.402;11.718;2023-04-03T05:15:43;4.97;;;2.30;;
25391;SDS011;13329;48.402;11.718;2023-04-03T05:18:08;4.33;;;2.40;;
25391;SDS011;13329;48.402;11.718;2023-04-03T05:20:33;4.13;;;2.20;;
25391;SDS011;13329;48.402;11.718;2023-04-03T05:22:59;4.43;;;2.30;;
25391;SDS011;13329;48.402;11.718;2023-04-03T05:25:24;3.20;;;2.23;;
25391;SDS011;13329;48.402;11.718;2023-04-03T05:27:50;2.70;;;1.70;;
25391;SDS011;13329;48.402;11.718;2023-04-03T05:30:15;4.20;;;2.03;;
25391;SDS011;13329;48.402;11.718;2023-04-03T05:32:40;5.03;;;2.30;;
25391;SDS011;13329;48.402;11.718;2023-04-03T05:35:06;4.65;;;2.30;;
25391;SDS011;13329;48.402;11.718;2023-04-03T05:37:32;3.85;;;2.03;;
25391;SDS011;13329;48.402;11.718;2023-04-03T05:39:57;3.28;;;1.92;;
25391;SDS011;13329;48.402;11.718;2023-04-03T05:42:22;4.23;;;2.00;;
25391;SDS011;13329;48.402;11.718;2023-04-03T05:44:48;3.58;;;2.13;;
25391;SDS011;13329;48.402;11.718;2023-04-03T05:47:14;5.25;;;2.63;;
25391;SDS011;13329;48.402;11.718;2023-04-03T05:49:40;5.50;;;2.45;;
25391;SDS011;13329;48.402;11.718;2023-04-03T05:52:06;6.13;;;2.85;;
25391;SDS011;13329;48.402;11.718;2023-04-03T05:54:31;9.05;;;2.90;;
25391;SDS011;13329;48.402;11.718;2023-04-03T05:56:56;6.10;;;2.37;;
25391;SDS011;13329;48.402;11.718;2023-04-03T05:59:21;6.77;;;2.93;;
25391;SDS011;13329;48.402;11.718;2023-04-03T06:01:47;7.73;;;2.50;;
25391;SDS011;13329;48.402;11.718;2023-04-03T06:04:12;6.78;;;2.85;;
25391;SDS011;13329;48.402;11.718;2023-04-03T06:09:10;5.43;;;2.63;;
25391;SDS011;13329;48.402;11.718;2023-04-03T06:11:35;5.27;;;2.50;;
25391;SDS011;13329;48.402;11.718;2023-04-03T06:14:00;7.20;;;2.97;;
25391;SDS011;13329;48.402;11.718;2023-04-03T06:16:26;6.00;;;2.85;;
25391;SDS011;13329;48.402;11.718;2023-04-03T06:18:51;5.00;;;2.80;;
25391;SDS011;13329;48.402;11.718;2023-04-03T06:21:16;4.75;;;2.65;;
25391;SDS011;13329;48.402;11.718;2023-04-03T06:23:41;4.70;;;2.88;;
25391;SDS011;13329;48.402;11.718;2023-04-03T06:26:06;3.70;;;2.55;;
25391;SDS011;13329;48.402;11.718;2023-04-03T06:28:32;3.30;;;2.03;;
25391;SDS011;13329;48.402;11.718;2023-04-03T06:30:57;3.87;;;2.47;;
25391;SDS011;13329;48.402;11.718;2023-04-03T06:33:22;5.13;;;2.57;;
25391;SDS011;13329;48.402;11.718;2023-04-03T06:35:47;4.27;;;2.57;;
25391;SDS011;13329;48.402;11.718;2023-04-03T06:38:12;6.50;;;2.72;;
25391;SDS011;13329;48.402;11.718;2023-04-03T06:40:37;4.00;;;2.40;;
25391;SDS011;13329;48.402;11.718;2023-04-03T06:43:03;8.20;;;3.67;;
25391;SDS011;13329;48.402;11.718;2023-04-03T06:45:28;3.37;;;2.20;;
25391;SDS011;13329;48.402;11.718;2023-04-03T06:47:53;4.57;;;2.90;;
25391;SDS011;13329;48.402;11.718;2023-04-03T06:50:18;4.63;;;2.90;;
25391;SDS011;13329;48.402;11.718;2023-04-03T06:52:44;4.73;;;2.83;;
25391;SDS011;13329;48.402;11.718;2023-04-03T06:55:10;5.50;;;3.00;;
25391;SDS011;13329;48.402;11.718;2023-04-03T06:57:36;4.05;;;2.10;;
25391;SDS011;13329;48.402;11.718;2023-04-03T07:00:02;4.60;;;2.92;;
25391;SDS011;13329;48.402;11.718;2023-04-03T07:02:29;3.75;;;2.58;;
25391;SDS011;13329;48.402;11.718;2023-04-03T07:04:54;5.17;;;2.40;;
25391;SDS011;13329;48.402;11.718;2023-04-03T07:07:19;4.25;;;2.38;;
25391;SDS011;13329;48.402;11.718;2023-04-03T07:09:45;5.37;;;2.70;;
25391;SDS011;13329;48.402;11.718;2023-04-03T07:12:11;4.80;;;2.58;;
25391;SDS011;13329;48.402;11.718;2023-04-03T07:14:36;6.43;;;2.90;;
25391;SDS011;13329;48.402;11.718;2023-04-03T07:17:02;5.07;;;2.60;;
25391;SDS011;13329;48.402;11.718;2023-04-03T07:19:27;5.17;;;2.80;;
25391;SDS011;13329;48.402;11.718;2023-04-03T07:21:53;7.00;;;2.53;;
25391;SDS011;13329;48.402;11.718;2023-04-03T07:24:18;6.15;;;2.70;;
25391;SDS011;13329;48.402;11.718;2023-04-03T07:26:43;5.10;;;2.57;;
25391;SDS011;13329;48.402;11.718;2023-04-03T07:29:10;5.97;;;2.25;;
25391;SDS011;13329;48.402;11.718;2023-04-03T07:31:35;4.03;;;2.25;;
25391;SDS011;13329;48.402;11.718;2023-04-03T07:34:00;5.35;;;2.75;;
25391;SDS011;13329;48.402;11.718;2023-04-03T07:36:26;4.80;;;2.60;;
25391;SDS011;13329;48.402;11.718;2023-04-03T07:38:51;4.27;;;2.40;;
25391;SDS011;13329;48.402;11.718;2023-04-03T07:41:17;5.67;;;2.57;;
25391;SDS011;13329;48.402;11.718;2023-04-03T07:43:43;5.15;;;2.20;;
25391;SDS011;13329;48.402;11.718;2023-04-03T07:46:09;4.53;;;2.33;;
25391;SDS011;13329;48.402;11.718;2023-04-03T07:48:34;5.47;;;2.87;;
25391;SDS011;13329;48.402;11.718;2023-04-03T07:51:00;4.15;;;2.53;;
25391;SDS011;13329;48.402;11.718;2023-04-03T07:53:25;5.13;;;2.70;;
25391;SDS011;13329;48.402;11.718;2023-04-03T07:55:51;3.83;;;2.20;;
25391;SDS011;13329;48.402;11.718;2023-04-03T07:58:20;5.97;;;2.45;;
25391;SDS011;13329;48.402;11.718;2023-04-03T08:00:45;4.82;;;2.55;;
25391;SDS011;13329;48.402;11.718;2023-04-03T08:03:11;3.90;;;2.20;;
25391;SDS011;13329;48.402;11.718;2023-04-03T08:05:37;6.43;;;2.25;;
25391;SDS011;13329;48.402;11.718;2023-04-03T08:08:02;4.10;;;2.13;;
25391;SDS011;13329;48.402;11.718;2023-04-03T08:10:29;4.10;;;2.73;;
25391;SDS011;13329;48.402;11.718;2023-04-03T08:12:54;3.03;;;2.40;;
25391;SDS011;13329;48.402;11.718;2023-04-03T08:15:19;3.60;;;2.50;;
25391;SDS011;13329;48.402;11.718;2023-04-03T08:17:45;3.90;;;2.67;;
25391;SDS011;13329;48.402;11.718;2023-04-03T08:20:10;4.77;;;2.53;;
25391;SDS011;13329;48.402;11.718;2023-04-03T08:22:36;5.15;;;2.50;;
25391;SDS011;13329;48.402;11.718;2023-04-03T08:25:01;5.78;;;2.45;;
25391;SDS011;13329;48.402;11.718;2023-04-03T08:27:26;3.22;;;2.17;;
25391;SDS011;13329;48.402;11.718;2023-04-03T08:29:52;2.80;;;2.35;;
25391;SDS011;13329;48.402;11.718;2023-04-03T08:32:17;3.17;;;2.60;;
25391;SDS011;13329;48.402;11.718;2023-04-03T08:34:43;4.57;;;2.60;;
25391;SDS011;13329;48.402;11.718;2023-04-03T08:37:08;8.65;;;2.53;;
25391;SDS011;13329;48.402;11.718;2023-04-03T08:39:33;6.38;;;3.08;;
25391;SDS011;13329;48.402;11.718;2023-04-03T08:41:58;3.67;;;2.35;;
25391;SDS011;13329;48.402;11.718;2023-04-03T08:51:56;4.82;;;2.28;;
25391;SDS011;13329;48.402;11.718;2023-04-03T08:54:37;5.70;;;2.63;;
25391;SDS011;13329;48.402;11.718;2023-04-03T08:57:03;3.00;;;1.77;;
25391;SDS011;13329;48.402;11.718;2023-04-03T08:59:32;3.85;;;2.30;;
25391;SDS011;13329;48.402;11.718;2023-04-03T09:01:58;7.25;;;2.70;;
25391;SDS011;13329;48.402;11.718;2023-04-03T09:04:24;8.10;;;2.20;;
25391;SDS011;13329;48.402;11.718;2023-04-03T09:06:55;2.20;;;1.70;;
25391;SDS011;13329;48.402;11.718;2023-04-03T09:09:35;4.60;;;2.10;;
25391;SDS011;13329;48.402;11.718;2023-04-03T09:14:38;5.95;;;2.33;;
25391;SDS011;13329;48.402;11.718;2023-04-03T09:17:09;3.72;;;2.00;;
25391;SDS011;13329;48.402;11.718;2023-04-03T09:19:39;2.00;;;1.45;;
25391;SDS011;13329;48.402;11.718;2023-04-03T09:24:37;4.45;;;2.13;;
25391;SDS011;13329;48.402;11.718;2023-04-03T09:27:10;4.03;;;1.53;;
25391;SDS011;13329;48.402;11.718;2023-04-03T09:29:37;3.40;;;1.58;;
25391;SDS011;13329;48.402;11.718;2023-04-03T09:32:12;1.85;;;1.50;;
25391;SDS011;13329;48.402;11.718;2023-04-03T09:34:42;5.47;;;1.80;;
25391;SDS011;13329;48.402;11.718;2023-04-03T09:37:08;2.42;;;1.40;;
25391;SDS011;13329;48.402;11.718;2023-04-03T09:39:48;5.35;;;1.48;;
25391;SDS011;13329;48.402;11.718;2023-04-03T09:42:21;4.47;;;1.50;;
25391;SDS011;13329;48.402;11.718;2023-04-03T09:44:57;2.45;;;1.35;;
25391;SDS011;13329;48.402;11.718;2023-04-03T09:47:24;3.85;;;1.55;;
25391;SDS011;13329;48.402;11.718;2023-04-03T09:49:49;2.20;;;1.60;;
25391;SDS011;13329;48.402;11.718;2023-04-03T09:52:18;2.33;;;1.10;;
25391;SDS011;13329;48.402;11.718;2023-04-03T09:54:44;3.50;;;1.60;;
25391;SDS011;13329;48.402;11.718;2023-04-03T09:57:10;4.35;;;1.33;;
25391;SDS011;13329;48.402;11.718;2023-04-03T09:59:42;1.70;;;1.40;;
25391;SDS011;13329;48.402;11.718;2023-04-03T10:02:22;1.90;;;1.38;;
25391;SDS011;13329;48.402;11.718;2023-04-03T10:04:48;2.17;;;1.40;;
25391;SDS011;13329;48.402;11.718;2023-04-03T10:07:47;2.30;;;1.30;;
25391;SDS011;13329;48.402;11.718;2023-04-03T10:12:39;2.17;;;1.20;;
25391;SDS011;13329;48.402;11.718;2023-04-03T10:15:10;2.87;;;1.13;;
25391;SDS011;13329;48.402;11.718;2023-04-03T10:28:01;2.15;;;0.80;;
25391;SDS011;13329;48.402;11.718;2023-04-03T10:30:39;5.50;;;1.23;;
25391;SDS011;13329;48.402;11.718;2023-04-03T10:40:52;2.47;;;1.33;;
25391;SDS011;13329;48.402;11.718;2023-04-03T10:53:21;2.03;;;1.33;;
25391;SDS011;13329;48.402;11.718;2023-04-03T10:55:51;4.30;;;1.50;;
25391;SDS011;13329;48.402;11.718;2023-04-03T10:58:24;2.35;;;1.23;;
25391;SDS011;13329;48.402;11.718;2023-04-03T11:00:51;1.75;;;1.20;;
25391;SDS011;13329;48.402;11.718;2023-04-03T11:05:51;2.43;;;1.07;;
25391;SDS011;13329;48.402;11.718;2023-04-03T11:08:29;2.50;;;1.20;;
25391;SDS011;13329;48.402;11.718;2023-04-03T11:11:00;3.05;;;1.00;;
25391;SDS011;13329;48.402;11.718;2023-04-03T11:16:12;1.70;;;1.02;;
25391;SDS011;13329;48.402;11.718;2023-04-03T11:21:21;2.72;;;1.02;;
25391;SDS011;13329;48.402;11.718;2023-04-03T11:23:49;2.83;;;1.00;;
25391;SDS011;13329;48.402;11.718;2023-04-03T11:26:17;1.02;;;0.80;;
25391;SDS011;13329;48.402;11.718;2023-04-03T11:28:42;2.25;;;1.20;;
25391;SDS011;13329;48.402;11.718;2023-04-03T11:31:17;3.37;;;1.00;;
25391;SDS011;13329;48.402;11.718;2023-04-03T11:36:24;1.05;;;0.80;;
25391;SDS011;13329;48.402;11.718;2023-04-03T11:38:51;1.55;;;1.00;;
25391;SDS011;13329;48.402;11.718;2023-04-03T11:41:17;2.47;;;1.00;;
25391;SDS011;13329;48.402;11.718;2023-04-03T11:43:57;1.83;;;1.10;;
25391;SDS011;13329;48.402;11.718;2023-04-03T11:46:22;2.08;;;1.00;;
25391;SDS011;13329;48.402;11.718;2023-04-03T11:48:48;1.92;;;0.88;;
25391;SDS011;13329;48.402;11.718;2023-04-03T11:53:43;2.25;;;1.05;;
25391;SDS011;13329;48.402;11.718;2023-04-03T12:04:10;2.10;;;1.00;;
25391;SDS011;13329;48.402;11.718;2023-04-03T12:09:04;5.60;;;1.33;;
25391;SDS011;13329;48.402;11.718;2023-04-03T12:11:46;1.65;;;1.02;;
25391;SDS011;13329;48.402;11.718;2023-04-03T12:14:15;3.47;;;1.40;;
25391;SDS011;13329;48.402;11.718;2023-04-03T12:16:42;2.88;;;1.02;;
25391;SDS011;13329;48.402;11.718;2023-04-03T12:29:20;1.83;;;0.98;;
25391;SDS011;13329;48.402;11.718;2023-04-03T12:31:58;1.17;;;0.88;;
25391;SDS011;13329;48.402;11.718;2023-04-03T12:45:10;3.63;;;0.90;;
25391;SDS011;13329;48.402;11.718;2023-04-03T12:47:38;2.92;;;1.08;;
25391;SDS011;13329;48.402;11.718;2023-04-03T12:50:40;4.47;;;1.20;;
25391;SDS011;13329;48.402;11.718;2023-04-03T12:55:27;2.80;;;0.90;;
25391;SDS011;13329;48.402;11.718;2023-04-03T12:57:52;2.40;;;1.20;;
25391;SDS011;13329;48.402;11.718;2023-04-03T13:02:45;1.20;;;0.80;;
25391;SDS011;13329;48.402;11.718;2023-04-03T13:05:13;1.98;;;0.90;;
25391;SDS011;13329;48.402;11.718;2023-04-03T13:07:40;1.80;;;0.80;;
25391;SDS011;13329;48.402;11.718;2023-04-03T13:12:32;5.80;;;1.20;;
25391;SDS011;13329;48.402;11.718;2023-04-03T13:14:59;2.72;;;1.10;;
25391;SDS011;13329;48.402;11.718;2023-04-03T13:17:26;1.90;;;1.10;;
25391;SDS011;13329;48.402;11.718;2023-04-03T13:19:52;1.08;;;0.70;;
25391;SDS011;13329;48.402;11.718;2023-04-03T13:22:24;1.73;;;0.70;;
25391;SDS011;13329;48.402;11.718;2023-04-03T13:24:51;1.55;;;0.90;;
25391;SDS011;13329;48.402;11.718;2023-04-03T13:27:17;2.03;;;0.88;;
25391;SDS011;13329;48.402;11.718;2023-04-03T13:29:43;2.10;;;0.77;;
25391;SDS011;13329;48.402;11.718;2023-04-03T13:32:19;3.20;;;0.90;;
25391;SDS011;13329;48.402;11.718;2023-04-03T13:34:45;0.70;;;0.70;;
25391;SDS011;13329;48.402;11.718;2023-04-03T13:42:29;1.90;;;0.80;;
25391;SDS011;13329;48.402;11.718;2023-04-03T13:47:39;1.30;;;0.82;;
25391;SDS011;13329;48.402;11.718;2023-04-03T13:52:52;1.73;;;0.77;;
25391;SDS011;13329;48.402;11.718;2023-04-03T13:55:25;1.23;;;0.52;;
25391;SDS011;13329;48.402;11.718;2023-04-03T13:57:53;2.05;;;0.80;;
25391;SDS011;13329;48.402;11.718;2023-04-03T14:00:19;1.13;;;0.65;;
25391;SDS011;13329;48.402;11.718;2023-04-03T14:02:46;2.22;;;0.80;;
25391;SDS011;13329;48.402;11.718;2023-04-03T14:05:12;2.80;;;0.88;;
25391;SDS011;13329;48.402;11.718;2023-04-03T14:07:37;1.85;;;0.60;;
25391;SDS011;13329;48.402;11.718;2023-04-03T14:10:02;1.25;;;0.50;;
25391;SDS011;13329;48.402;11.718;2023-04-03T14:12:30;1.42;;;0.80;;
25391;SDS011;13329;48.402;11.718;2023-04-03T14:14:56;0.65;;;0.55;;
25391;SDS011;13329;48.402;11.718;2023-04-03T14:17:23;1.58;;;0.85;;
25391;SDS011;13329;48.402;11.718;2023-04-03T14:19:49;1.90;;;0.75;;
25391;SDS011;13329;48.402;11.718;2023-04-03T14:22:20;1.98;;;0.90;;
25391;SDS011;13329;48.402;11.718;2023-04-03T14:24:47;1.58;;;0.80;;
25391;SDS011;13329;48.402;11.718;2023-04-03T14:29:44;2.15;;;0.70;;
25391;SDS011;13329;48.402;11.718;2023-04-03T14:32:11;1.40;;;0.70;;
25391;SDS011;13329;48.402;11.718;2023-04-03T14:34:36;1.80;;;0.85;;
25391;SDS011;13329;48.402;11.718;2023-04-03T14:37:01;2.13;;;0.88;;
25391;SDS011;13329;48.402;11.718;2023-04-03T14:39:26;0.90;;;0.80;;
25391;SDS011;13329;48.402;11.718;2023-04-03T14:41:52;3.37;;;0.83;;
25391;SDS011;13329;48.402;11.718;2023-04-03T14:44:17;2.63;;;1.00;;
25391;SDS011;13329;48.402;11.718;2023-04-03T14:46:42;2.20;;;1.00;;
25391;SDS011;13329;48.402;11.718;2023-04-03T14:49:18;1.80;;;0.93;;
25391;SDS011;13329;48.402;11.718;2023-04-03T14:51:44;1.17;;;0.85;;
25391;SDS011;13329;48.402;11.718;2023-04-03T14:54:13;1.88;;;1.00;;
25391;SDS011;13329;48.402;11.718;2023-04-03T14:56:39;1.88;;;0.95;;
25391;SDS011;13329;48.402;11.718;2023-04-03T14:59:04;2.63;;;0.85;;
25391;SDS011;13329;48.402;11.718;2023-04-03T15:01:33;1.92;;;1.00;;
25391;SDS011;13329;48.402;11.718;2023-04-03T15:03:58;1.55;;;0.90;;
25391;SDS011;13329;48.402;11.718;2023-04-03T15:06:23;1.57;;;0.80;;
25391;SDS011;13329;48.402;11.718;2023-04-03T15:08:49;1.67;;;1.00;;
25391;SDS011;13329;48.402;11.718;2023-04-03T15:11:15;2.65;;;0.90;;
25391;SDS011;13329;48.402;11.718;2023-04-03T15:13:40;1.97;;;1.00;;
25391;SDS011;13329;48.402;11.718;2023-04-03T15:16:06;0.77;;;0.63;;
25391;SDS011;13329;48.402;11.718;2023-04-03T15:18:37;1.30;;;0.82;;
25391;SDS011;13329;48.402;11.718;2023-04-03T15:21:02;1.50;;;0.80;;
25391;SDS011;13329;48.402;11.718;2023-04-03T15:23:28;1.90;;;1.15;;
25391;SDS011;13329;48.402;11.718;2023-04-03T15:25:55;3.53;;;1.23;;
25391;SDS011;13329;48.402;11.718;2023-04-03T15:29:02;1.10;;;0.82;;
25391;SDS011;13329;48.402;11.718;2023-04-03T15:31:08;1.83;;;0.82;;
25391;SDS011;13329;48.402;11.718;2023-04-03T15:33:34;1.87;;;0.97;;
25391;SDS011;13329;48.402;11.718;2023-04-03T15:35:59;1.85;;;0.80;;
25391;SDS011;13329;48.402;11.718;2023-04-03T15:38:24;2.00;;;1.13;;
25391;SDS011;13329;48.402;11.718;2023-04-03T15:40:50;3.13;;;1.20;;
25391;SDS011;13329;48.402;11.718;2023-04-03T15:43:15;1.30;;;0.70;;
25391;SDS011;13329;48.402;11.718;2023-04-03T15:45:40;1.48;;;0.80;;
25391;SDS011;13329;48.402;11.718;2023-04-03T15:48:06;3.00;;;1.27;;
25391;SDS011;13329;48.402;11.718;2023-04-03T15:50:32;5.00;;;0.88;;
25391;SDS011;13329;48.402;11.718;2023-04-03T15:52:58;1.48;;;0.95;;
25391;SDS011;13329;48.402;11.718;2023-04-03T15:55:24;1.58;;;0.80;;
25391;SDS011;13329;48.402;11.718;2023-04-03T15:57:50;2.25;;;0.70;;
25391;SDS011;13329;48.402;11.718;2023-04-03T16:00:15;2.75;;;1.00;;
25391;SDS011;13329;48.402;11.718;2023-04-03T16:02:41;3.17;;;0.90;;
25391;SDS011;13329;48.402;11.718;2023-04-03T16:05:06;1.08;;;0.90;;
25391;SDS011;13329;48.402;11.718;2023-04-03T16:07:32;1.20;;;0.80;;
25391;SDS011;13329;48.402;11.718;2023-04-03T16:09:57;2.20;;;0.90;;
25391;SDS011;13329;48.402;11.718;2023-04-03T16:12:22;1.75;;;0.75;;
25391;SDS011;13329;48.402;11.718;2023-04-03T16:14:47;1.67;;;0.83;;
25391;SDS011;13329;48.402;11.718;2023-04-03T16:17:13;3.47;;;0.90;;
25391;SDS011;13329;48.402;11.718;2023-04-03T16:19:38;1.27;;;0.77;;
25391;SDS011;13329;48.402;11.718;2023-04-03T16:22:03;3.15;;;1.17;;
25391;SDS011;13329;48.402;11.718;2023-04-03T16:24:28;2.83;;;1.02;;
25391;SDS011;13329;48.402;11.718;2023-04-03T16:26:54;2.85;;;1.10;;
25391;SDS011;13329;48.402;11.718;2023-04-03T16:29:20;1.92;;;0.80;;
25391;SDS011;13329;48.402;11.718;2023-04-03T16:31:45;1.45;;;0.90;;